createdAt,value
2022-11-05T00:00:31.901Z,5.50
2022-11-05T00:03:17.669Z,6.05
2022-11-05T00:06:05.375Z,6.25
2022-11-05T00:08:51.251Z,6.28
2022-11-05T00:11:18.650Z,6.68
2022-11-05T00:14:04.060Z,6.82
2022-11-05T00:16:46.356Z,6.88
2022-11-05T00:19:15.091Z,6.10
2022-11-05T00:22:00.946Z,5.90
2022-11-05T00:24:46.437Z,5.72
2022-11-05T00:27:13.326Z,6.50
2022-11-05T00:29:40.277Z,7.55
2022-11-05T00:32:07.285Z,6.60
2022-11-05T00:34:34.358Z,6.57
2022-11-05T00:37:01.301Z,6.63
2022-11-05T00:39:28.164Z,8.00
2022-11-05T00:42:13.940Z,6.57
2022-11-05T00:44:59.553Z,7.82
2022-11-05T00:47:45.062Z,6.40
2022-11-05T00:50:12.326Z,7.10
2022-11-05T00:52:57.890Z,7.35
2022-11-05T00:55:35.689Z,6.53
2022-11-05T00:58:05.309Z,7.05
2022-11-05T01:00:33.847Z,7.47
2022-11-05T01:03:03.508Z,6.32
2022-11-05T01:05:32.291Z,6.75
2022-11-05T01:07:59.450Z,6.18
2022-11-05T01:10:26.568Z,6.22
2022-11-05T01:12:54.041Z,7.15
2022-11-05T01:15:21.585Z,6.35
2022-11-05T01:17:48.821Z,6.82
2022-11-05T01:20:16.603Z,5.88
2022-11-05T01:22:43.601Z,5.85
2022-11-05T01:25:10.690Z,4.72
2022-11-05T01:27:38.281Z,5.63
2022-11-05T01:30:07.901Z,6.53
2022-11-05T01:32:36.429Z,5.70
2022-11-05T01:35:08.168Z,6.43
2022-11-05T01:37:36.448Z,6.70
2022-11-05T01:40:04.124Z,6.97
2022-11-05T01:42:32.433Z,5.95
2022-11-05T01:45:26.567Z,7.05
2022-11-05T01:48:16.629Z,5.68
2022-11-05T01:51:01.450Z,6.35
2022-11-05T01:53:44.900Z,6.38
2022-11-05T01:56:14.648Z,7.75
2022-11-05T01:58:56.934Z,6.53
2022-11-05T02:01:25.149Z,6.22
2022-11-05T02:03:57.609Z,6.65
2022-11-05T02:06:27.560Z,6.78
2022-11-05T02:09:00.230Z,6.00
2022-11-05T02:13:54.124Z,6.45
2022-11-05T02:16:29.222Z,7.03
2022-11-05T02:19:05.805Z,8.13
2022-11-05T02:21:58.670Z,7.38
2022-11-05T02:24:31.684Z,7.22
2022-11-05T02:27:16.412Z,8.23
2022-11-05T02:30:03.148Z,8.55
2022-11-05T02:32:54.885Z,8.23
2022-11-05T02:35:50.126Z,8.57
2022-11-05T02:38:32.193Z,7.38
2022-11-05T02:41:31.646Z,7.72
2022-11-05T02:44:16.789Z,7.57
2022-11-05T02:47:12.893Z,7.65
2022-11-05T02:50:02.499Z,7.75
2022-11-05T02:52:37.793Z,7.70
2022-11-05T02:55:18.846Z,6.22
2022-11-05T02:57:47.962Z,6.72
2022-11-05T03:00:55.004Z,5.97
2022-11-05T03:03:36.829Z,6.47
2022-11-05T03:06:35.151Z,6.05
2022-11-05T03:09:24.050Z,5.70
2022-11-05T03:12:15.387Z,4.90
2022-11-05T03:15:11.294Z,6.20
2022-11-05T03:17:38.090Z,6.60
2022-11-05T03:20:22.075Z,6.30
2022-11-05T03:23:01.209Z,7.05
2022-11-05T03:25:29.607Z,7.15
2022-11-05T03:28:00.877Z,7.30
2022-11-05T03:30:28.401Z,7.97
2022-11-05T03:33:03.673Z,8.02
2022-11-05T03:35:40.627Z,7.20
2022-11-05T03:38:13.358Z,7.85
2022-11-05T03:43:09.680Z,6.30
2022-11-05T03:45:51.676Z,6.57
2022-11-05T03:48:21.086Z,6.18
2022-11-05T03:51:11.270Z,7.28
2022-11-05T03:53:46.042Z,6.47
2022-11-05T03:56:36.092Z,5.45
2022-11-05T03:59:06.617Z,6.25
2022-11-05T04:01:36.348Z,7.15
2022-11-05T04:04:05.562Z,6.70
2022-11-05T04:06:51.026Z,6.28
2022-11-05T04:09:36.989Z,5.50
2022-11-05T04:12:23.143Z,5.57
2022-11-05T04:14:50.202Z,7.63
2022-11-05T04:17:17.454Z,5.90
2022-11-05T04:20:04.339Z,6.43
2022-11-05T04:22:53.002Z,6.10
2022-11-05T04:25:21.546Z,6.03
2022-11-05T04:27:49.046Z,5.60
2022-11-05T04:30:18.472Z,5.55
2022-11-05T04:33:00.338Z,6.22
2022-11-05T04:35:30.506Z,4.88
2022-11-05T04:37:57.574Z,4.90
2022-11-05T04:40:25.142Z,5.60
2022-11-05T04:42:54.564Z,6.47
2022-11-05T04:45:23.460Z,4.72
2022-11-05T04:47:50.643Z,5.85
2022-11-05T04:50:18.301Z,5.45
2022-11-05T04:52:45.414Z,6.47
2022-11-05T04:55:12.739Z,4.63
2022-11-05T04:57:40.109Z,5.72
2022-11-05T05:00:08.361Z,5.63
2022-11-05T05:02:38.558Z,4.95
2022-11-05T05:05:05.950Z,5.20
2022-11-05T05:07:34.900Z,4.95
2022-11-05T05:10:03.758Z,5.28
2022-11-05T05:12:32.790Z,5.93
2022-11-05T05:14:59.911Z,5.85
2022-11-05T05:17:27.132Z,6.00
2022-11-05T05:20:13.143Z,6.15
2022-11-05T05:22:41.230Z,6.13
2022-11-05T05:25:08.879Z,6.88
2022-11-05T05:27:35.965Z,8.23
2022-11-05T05:30:03.936Z,7.32
2022-11-05T05:32:30.995Z,8.77
2022-11-05T05:34:58.520Z,6.65
2022-11-05T05:37:25.596Z,8.15
2022-11-05T05:39:53.726Z,8.57
2022-11-05T05:42:23.189Z,9.27
2022-11-05T05:44:50.260Z,8.02
2022-11-05T05:47:17.455Z,8.90
2022-11-05T05:49:44.467Z,8.60
2022-11-05T05:52:11.662Z,9.13
2022-11-05T05:54:42.781Z,8.82
2022-11-05T05:57:10.374Z,7.50
2022-11-05T05:59:37.963Z,8.52
2022-11-05T06:02:05.273Z,8.27
2022-11-05T06:04:32.528Z,7.53
2022-11-05T06:06:59.799Z,8.18
2022-11-05T06:09:26.762Z,7.88
2022-11-05T06:11:53.944Z,7.70
2022-11-05T06:14:21.302Z,8.43
2022-11-05T06:16:48.485Z,8.50
2022-11-05T06:19:15.587Z,8.48
2022-11-05T06:21:42.713Z,8.90
2022-11-05T06:24:10.856Z,6.90
2022-11-05T06:26:43.013Z,8.02
2022-11-05T06:29:10.856Z,9.45
2022-11-05T06:31:38.399Z,8.77
2022-11-05T06:34:05.876Z,7.90
2022-11-05T06:36:33.650Z,9.40
2022-11-05T06:39:01.006Z,9.60
2022-11-05T06:41:28.503Z,9.50
2022-11-05T06:43:55.889Z,9.43
2022-11-05T06:46:23.439Z,8.85
2022-11-05T06:48:51.251Z,9.20
2022-11-05T06:51:19.006Z,10.63
2022-11-05T06:53:46.223Z,9.40
2022-11-05T06:56:13.249Z,9.15
2022-11-05T06:58:40.675Z,9.70
2022-11-05T07:01:10.234Z,7.95
2022-11-05T07:03:39.038Z,8.75
2022-11-05T07:06:07.783Z,8.50
2022-11-05T07:08:36.890Z,8.13
2022-11-05T07:11:04.947Z,8.00
2022-11-05T07:13:32.273Z,8.13
2022-11-05T07:15:59.462Z,8.25
2022-11-05T07:18:27.038Z,7.53
2022-11-05T07:20:54.204Z,7.93
2022-11-05T07:23:21.280Z,7.97
2022-11-05T07:25:48.285Z,7.60
2022-11-05T07:28:15.524Z,8.18
2022-11-05T07:30:42.436Z,9.15
2022-11-05T07:33:10.211Z,7.35
2022-11-05T07:35:37.301Z,7.95
2022-11-05T07:38:04.533Z,7.82
2022-11-05T07:40:31.921Z,7.95
2022-11-05T07:43:00.892Z,7.13
2022-11-05T07:45:30.425Z,7.07
2022-11-05T07:48:03.540Z,6.57
2022-11-05T07:50:33.300Z,7.47
2022-11-05T07:53:02.479Z,6.55
2022-11-05T07:55:30.314Z,6.53
2022-11-05T07:57:57.716Z,7.15
2022-11-05T08:00:25.947Z,7.03
2022-11-05T08:03:07.605Z,7.72
2022-11-05T08:05:37.885Z,6.20
2022-11-05T08:08:06.480Z,7.78
2022-11-05T08:10:34.295Z,6.97
2022-11-05T08:13:02.099Z,7.25
2022-11-05T08:15:29.427Z,6.20
2022-11-05T08:18:12.197Z,6.20
2022-11-05T08:20:39.602Z,7.03
2022-11-05T08:23:06.680Z,6.50
2022-11-05T08:25:34.347Z,6.88
2022-11-05T08:28:05.421Z,6.97
2022-11-05T08:30:33.202Z,6.55
2022-11-05T08:33:05.792Z,6.05
2022-11-05T08:35:35.060Z,5.57
2022-11-05T08:38:04.053Z,6.22
2022-11-05T08:40:33.367Z,6.45
2022-11-05T08:43:05.233Z,5.95
2022-11-05T08:45:38.283Z,6.10
2022-11-05T08:48:09.198Z,6.68
2022-11-05T08:50:37.481Z,6.13
2022-11-05T08:53:06.303Z,6.82
2022-11-05T08:55:33.959Z,5.97
2022-11-05T08:58:03.374Z,7.53
2022-11-05T09:00:33.537Z,6.78
2022-11-05T09:03:02.431Z,6.78
2022-11-05T09:05:31.407Z,6.97
2022-11-05T09:08:01.453Z,7.20
2022-11-05T09:10:29.097Z,7.57
2022-11-05T09:12:56.649Z,7.30
2022-11-05T09:15:24.682Z,7.45
2022-11-05T09:17:52.184Z,7.40
2022-11-05T09:20:19.776Z,7.00
2022-11-05T09:22:47.164Z,7.70
2022-11-05T09:25:15.982Z,6.18
2022-11-05T09:27:43.865Z,5.95
2022-11-05T09:30:13.532Z,6.43
2022-11-05T09:32:41.202Z,6.35
2022-11-05T09:35:09.456Z,6.78
2022-11-05T09:37:38.174Z,6.55
2022-11-05T09:40:06.115Z,6.90
2022-11-05T09:42:40.869Z,7.40
2022-11-05T09:45:13.633Z,7.85
2022-11-05T09:50:20.316Z,6.63
2022-11-05T09:52:47.603Z,6.90
2022-11-05T09:55:39.243Z,6.88
2022-11-05T09:58:35.978Z,4.85
2022-11-05T10:01:07.718Z,7.07
2022-11-05T10:03:43.675Z,6.63
2022-11-05T10:06:19.373Z,6.80
2022-11-05T10:08:53.039Z,7.03
2022-11-05T10:11:37.536Z,6.60
2022-11-05T10:14:49.578Z,7.20
2022-11-05T10:17:22.613Z,6.80
2022-11-05T10:20:02.523Z,7.40
2022-11-05T10:22:29.662Z,6.97
2022-11-05T10:24:56.975Z,8.07
2022-11-05T10:27:31.351Z,7.93
2022-11-05T10:29:58.872Z,8.23
2022-11-05T10:32:34.411Z,6.63
2022-11-05T10:35:04.571Z,8.18
2022-11-05T10:37:37.021Z,8.32
2022-11-05T10:40:18.608Z,7.18
2022-11-05T10:42:48.314Z,7.22
2022-11-05T10:45:30.813Z,8.45
2022-11-05T10:48:29.952Z,8.02
2022-11-05T10:50:57.730Z,7.72
2022-11-05T10:53:33.104Z,9.75
2022-11-05T10:56:00.713Z,9.25
2022-11-05T10:58:34.862Z,9.27
2022-11-05T11:01:07.053Z,9.75
2022-11-05T11:03:39.474Z,9.88
2022-11-05T11:06:28.125Z,10.00
2022-11-05T11:08:58.077Z,10.40
2022-11-05T11:11:38.516Z,9.70
2022-11-05T11:14:18.803Z,9.50
2022-11-05T11:16:48.142Z,9.73
2022-11-05T11:19:25.490Z,10.48
2022-11-05T11:22:04.488Z,9.23
2022-11-05T11:24:43.617Z,10.23
2022-11-05T11:27:22.835Z,10.07
2022-11-05T11:30:01.587Z,8.93
2022-11-05T14:01:46.114Z,9.65
2022-11-05T14:04:27.975Z,10.48
2022-11-05T14:07:05.841Z,7.73
2022-11-05T14:09:36.136Z,12.25
2022-11-05T14:12:05.453Z,10.77
2022-11-05T14:14:48.106Z,11.00
2022-11-05T14:17:31.010Z,10.07
2022-11-05T14:22:32.081Z,12.25
2022-11-05T14:25:23.427Z,8.02
2022-11-05T14:27:52.711Z,9.63
2022-11-05T14:30:41.079Z,9.75
2022-11-05T14:33:27.228Z,10.48
2022-11-05T14:36:20.314Z,11.10
2022-11-05T14:38:51.134Z,10.02
2022-11-05T14:41:19.803Z,9.98
2022-11-05T14:44:13.267Z,10.55
2022-11-05T14:46:47.179Z,8.88
2022-11-05T14:49:21.456Z,10.07
2022-11-05T14:51:51.644Z,10.55
2022-11-05T14:54:34.021Z,9.85
2022-11-05T14:57:02.659Z,10.60
2022-11-05T14:59:31.827Z,11.90
2022-11-05T15:02:02.588Z,10.02
2022-11-05T15:04:32.951Z,10.15
2022-11-05T15:07:03.228Z,9.98
2022-11-05T15:09:33.321Z,10.60
2022-11-05T15:12:10.278Z,8.70
2022-11-05T15:15:00.555Z,10.50
2022-11-05T15:17:39.577Z,10.27
2022-11-05T15:20:06.783Z,9.88
2022-11-05T15:22:40.419Z,11.57
2022-11-05T15:25:29.873Z,10.55
2022-11-05T15:28:05.945Z,10.98
2022-11-05T15:30:33.402Z,10.07
2022-11-05T15:33:20.981Z,10.93
2022-11-05T15:35:48.833Z,11.55
2022-11-05T15:38:34.403Z,12.77
2022-11-05T15:41:21.310Z,11.98
2022-11-05T15:43:49.911Z,13.57
2022-11-05T15:46:31.044Z,10.75
2022-11-05T15:49:04.656Z,13.75
2022-11-05T15:51:32.288Z,13.32
2022-11-05T15:54:29.232Z,10.65
2022-11-05T15:57:00.351Z,13.73
2022-11-05T15:59:29.807Z,12.70
2022-11-05T16:02:06.113Z,13.05
2022-11-05T16:04:35.426Z,11.95
2022-11-05T16:07:12.301Z,13.90
2022-11-05T16:09:44.136Z,12.52
2022-11-05T16:12:38.108Z,12.27
2022-11-05T16:15:08.144Z,12.35
2022-11-05T16:17:47.613Z,11.70
2022-11-05T16:20:23.629Z,11.77
2022-11-05T16:22:54.319Z,11.00
2022-11-05T16:25:43.301Z,10.63
2022-11-05T16:28:22.506Z,11.63
2022-11-05T16:31:02.526Z,12.48
2022-11-05T16:33:43.016Z,11.27
2022-11-05T16:36:10.439Z,13.77
2022-11-05T16:38:37.527Z,11.23
2022-11-05T16:41:07.052Z,12.57
2022-11-05T16:43:34.683Z,11.73
2022-11-05T16:46:02.356Z,12.45
2022-11-05T16:48:29.562Z,11.93
2022-11-05T16:50:56.840Z,12.43
2022-11-05T16:53:24.015Z,12.30
2022-11-05T16:55:51.202Z,12.70
2022-11-05T16:58:24.086Z,12.50
2022-11-05T17:00:56.474Z,13.35
2022-11-05T17:03:24.086Z,13.70
2022-11-05T17:05:51.240Z,12.25
2022-11-05T17:08:18.367Z,12.73
2022-11-05T17:10:45.583Z,12.63
2022-11-05T17:13:15.667Z,13.02
2022-11-05T17:15:44.955Z,11.30
2022-11-05T17:18:17.966Z,12.00
2022-11-05T17:20:51.398Z,10.02
2022-11-05T17:23:21.017Z,9.07
2022-11-05T17:25:54.689Z,11.38
2022-11-05T17:28:22.007Z,11.50
2022-11-05T17:30:52.921Z,10.10
2022-11-05T17:33:23.120Z,11.25
2022-11-05T17:35:51.579Z,10.90
2022-11-05T17:38:18.954Z,11.57
2022-11-05T17:40:45.887Z,12.18
2022-11-05T17:43:13.076Z,12.13
2022-11-05T17:45:45.354Z,13.45
2022-11-05T17:48:13.001Z,12.95
2022-11-05T17:50:44.666Z,12.25
2022-11-05T17:53:12.877Z,11.63
2022-11-05T17:55:45.114Z,9.20
2022-11-05T17:58:12.452Z,11.77
2022-11-05T18:00:40.057Z,10.85
2022-11-05T18:03:07.218Z,10.73
2022-11-05T18:05:34.909Z,11.35
2022-11-05T20:44:05.146Z,9.30
2022-11-05T20:46:32.257Z,11.20
2022-11-05T20:48:59.607Z,12.52
2022-11-05T20:51:26.783Z,13.45
2022-11-05T20:54:01.879Z,13.13
2022-11-05T20:56:31.917Z,14.32
2022-11-05T20:59:00.947Z,12.77
2022-11-05T21:01:31.386Z,13.07
2022-11-05T21:04:00.007Z,13.07
2022-11-05T21:06:27.499Z,13.98
2022-11-05T21:08:55.467Z,11.15
2022-11-05T21:11:23.258Z,13.95
2022-11-05T21:13:51.007Z,15.00
2022-11-05T21:16:20.682Z,11.73
2022-11-05T21:18:48.639Z,11.27
2022-11-05T21:21:20.712Z,11.57
2022-11-05T21:23:48.550Z,13.55
2022-11-05T21:26:18.112Z,13.73
2022-11-05T21:28:45.707Z,13.95
2022-11-05T21:31:13.359Z,8.75
2022-11-05T21:33:40.807Z,11.90
2022-11-05T21:36:13.760Z,11.55
2022-11-05T21:41:08.993Z,10.90
2022-11-05T21:43:38.750Z,10.50
2022-11-05T21:46:06.258Z,11.30
2022-11-05T21:48:34.191Z,10.95
2022-11-05T21:51:20.157Z,11.05
2022-11-05T21:54:06.813Z,10.80
2022-11-05T21:56:52.678Z,10.50
2022-11-05T21:59:41.655Z,11.35
2022-11-05T22:02:11.491Z,11.10
2022-11-05T22:04:41.925Z,9.43
2022-11-05T22:07:10.799Z,9.30
2022-11-05T22:09:38.749Z,9.60
2022-11-05T22:12:06.953Z,11.88
2022-11-05T22:14:34.628Z,9.95
2022-11-05T22:17:02.307Z,11.18
2022-11-05T22:19:30.801Z,9.38
2022-11-05T22:21:58.045Z,8.93
2022-11-05T22:24:25.842Z,10.77
2022-11-05T22:26:53.279Z,9.40
2022-11-05T22:29:20.505Z,12.02
2022-11-05T22:31:47.978Z,11.60
2022-11-05T22:34:14.978Z,11.73
2022-11-05T22:36:42.289Z,9.93
2022-11-05T22:39:11.929Z,8.18
2022-11-05T22:41:39.624Z,9.23
2022-11-05T22:44:06.912Z,9.93
2022-11-05T22:46:34.010Z,11.18
2022-11-05T22:49:01.141Z,10.50
2022-11-05T22:51:31.453Z,8.80
2022-11-05T22:53:59.531Z,10.52
2022-11-05T22:56:29.618Z,9.52
2022-11-05T22:58:57.503Z,11.73
2022-11-05T23:01:25.370Z,10.60
2022-11-05T23:03:54.448Z,9.10
2022-11-05T23:06:42.454Z,11.10
2022-11-05T23:09:38.381Z,9.73
2022-11-05T23:12:08.963Z,11.60
2022-11-05T23:14:36.778Z,10.85
2022-11-05T23:17:22.653Z,10.07
2022-11-05T23:20:08.167Z,10.43
2022-11-05T23:22:53.841Z,9.98
2022-11-05T23:25:22.895Z,11.35
2022-11-05T23:27:52.393Z,11.32
2022-11-05T23:30:24.794Z,10.90
2022-11-05T23:32:52.970Z,10.70
2022-11-05T23:35:43.673Z,9.82
2022-11-05T23:38:29.335Z,10.02
2022-11-05T23:41:22.614Z,11.02
2022-11-05T23:46:54.386Z,8.50
2022-11-05T23:49:22.230Z,10.52
2022-11-05T23:51:49.676Z,12.57
2022-11-05T23:54:16.605Z,11.00
2022-11-05T23:56:43.552Z,11.93
2022-11-05T23:59:10.921Z,12.98
